Tiempo atmosférico en la estación meteorológica de Ainsa, Huesca (610 m.)



Fecha
DESCASC
Temp. máxima en grados centígrados (hora)
DESCASC
Temp. mínima en grados centígrados (hora)
DESCASC
Temp. media en grados centígrados
DESCASC
Racha de viento máxima en m/sg (hora)
DESCASC
Velocidad máxima media en intervalos de 10 minutos(hora)
DESCASC
Precipitaciones diarias en mm
DESCASC
Precipitaciones de 00:00 a 06:00 en mm
DESCASC
Precipitaciones de 06:00 a 12:00 en mm
DESCASC
Precipitaciones de 12:00 a 18:00 en mm
DESCASC
Precipitaciones de 18:00 a 24:00 en mm
DESCASC
17-09-2020 29.7 (16:00) 15.4 (08:10) 22.6 9.17 (14:50) 5.83 (14:40) 0 0 0 0 0
16-09-2020 32.3 (15:20) 14.7 (06:20) 23.5 10.28 (17:10) 6.39 (17:20) 0 0 0 0 0
15-09-2020 30.2 (14:40) 16 (06:40) 23.1 12.22 (16:50) 6.67 (17:10) 0 0 0 0 0
14-09-2020 31.9 (15:50) 14.7 (00:00) 23.3 7.5 (17:20) 5.28 (17:40) 0 0 0 0 0
13-09-2020 32 (15:50) 14.8 (00:00) 23.4 6.39 (15:50) 5 (18:00) 0 0 0 0 0
12-09-2020 31.2 (17:30) 14.8 (00:00) 23 8.89 (16:00) 6.67 (15:20) 0 0 0 0 0
11-09-2020 31 (14:50) 13.3 (00:00) 22.2 9.17 (16:50) 6.39 (16:30) 0 0 0 0 0
10-09-2020 28.5 (17:40) 13.2 (00:00) 20.8 11.94 (16:20) 6.39 (16:10) 0 0 0 0 0
09-09-2020 26.1 (14:50) 14.2 (00:00) 20.2 7.78 (20:10) 5.28 (18:30) 0 0 0 0 0
08-09-2020 28.1 (15:50) 10 (00:00) 19.1 11.39 (00:10) 8.89 (18:20) 0 0 0 0 0
07-09-2020 26.1 (14:50) 12.1 (08:00) 19.1 17.5 (20:10) 10.56 (19:20) 0 0 0 0 0
06-09-2020 30.3 (17:40) 15.4 (00:00) 22.8 10.83 (14:20) 8.06 (16:10) 0 0 0 0 0
05-09-2020 31.4 (16:50) 13.9 (00:00) 22.6 11.39 (18:10) 7.22 (17:40) 0 0 0 0 0
04-09-2020 31.3 (15:50) 13.1 (00:00) 22.2 7.5 (19:10) 5.83 (19:10) 0 0 0 0 0
03-09-2020 29 (15:00) 11.7 (00:00) 20.3 8.33 (17:20) 6.11 (17:20) 0 0 0 0 0
02-09-2020 26.3 (17:30) 11.1 (00:00) 18.7 10 (16:30) 7.22 (15:10) 0 0 0 0 0
01-09-2020 26.2 (14:30) 11.5 (00:00) 18.9 9.72 (17:50) 6.67 (17:50) 0 0 0 0 0
31-08-2020 24.4 (16:20) 7.8 (00:00) 16.1 9.44 (17:20) 7.22 (17:20) 0 0 0 0 0
30-08-2020 23.7 (14:50) 8.7 (00:00) 16.2 9.44 (17:00) 7.22 (17:00) 0.4 0 0 0 0.4
29-08-2020 24.2 (14:20) 13.4 (00:00) 18.8 9.44 (16:30) 6.39 (16:50) 6.2 0 0 5.2 1
28-08-2020 26.5 (19:30) 19.9 (00:00) 23.2 10 (22:00) 7.22 (21:20) 6 0 0 6 0
27-08-2020 33.6 (19:10) 18 (00:00) 25.8 10 (17:10) 6.67 (15:00) 0 0 0 0 0
26-08-2020 33.9 (14:40) 17.5 (00:00) 25.7 9.17 (17:10) 6.67 (16:20) 0 0 0 0 0
25-08-2020 33.7 (16:00) 14.3 (00:00) 24 9.72 (17:00) 7.22 (17:00) 0 0 0 0 0
24-08-2020 -- (--) -- (--) -- -- (--) -- (--) 0 0 0 0 0
23-08-2020 30.3 (17:30) 13.8 (00:00) 22 9.44 (18:10) 7.22 (16:40) 0 0 0 0 0
22-08-2020 33.8 (18:40) 19.4 (00:00) 26.6 13.06 (16:50) 7.78 (15:00) 0 0 0 0 0
21-08-2020 34.6 (15:20) 17.1 (00:00) 25.8 9.44 (17:50) 7.22 (17:20) 0 0 0 0 0
20-08-2020 34.6 (15:00) 18.1 (00:00) 26.3 10.56 (19:50) 7.78 (19:10) 0 0 0 0 0

Gráficas

Temp. máximas Temp. mínimas Temp. medias Precipitaciones Rachas de viento máximas Velocidades máximas media en intervalos de 10 minutos

Datos horarios

Fecha y hora oficial Temperatura (ºC) Velocidad del viento (km/h) Dirección del viento Racha (km/h) Dirección de racha Precipitación (mm) Presión (hPa) Tendencia (hPa) Humedad (%)
2020-09-18 23:00:00 18.4 13 Sudeste 46 Sudeste 0 -- -- 89
2020-09-18 22:00:00 20.4 24 Sudeste 48 Este 0 -- -- 74
2020-09-18 21:00:00 20.5 22 Sudeste 44 Este 0 -- -- 74
2020-09-18 20:00:00 20.5 24 Este 41 Sudeste 0.2 -- -- 73
2020-09-18 19:00:00 20.2 24 Sudeste 40 Este 1 -- -- 77
2020-09-18 18:00:00 21.3 7 Oeste 10 Oeste 0 -- -- 72
2020-09-18 17:00:00 21.7 2 Oeste 17 Oeste 0 -- -- 69
2020-09-18 16:00:00 22 9 Oeste 13 Sudoeste 0 -- -- 69
2020-09-18 15:00:00 19.3 10 Noroeste 19 Oeste 0 -- -- 79
2020-09-18 14:00:00 19.6 6 Oeste 12 Oeste 0 -- -- 78
2020-09-18 13:00:00 19 7 Oeste 9 Oeste 0.6 -- -- 80
2020-09-18 12:00:00 19.2 3 Oeste 6 Oeste 0.2 -- -- 78
2020-09-18 11:00:00 19 5 Oeste 13 Oeste 0 -- -- 77
2020-09-18 10:00:00 18.1 7 Noroeste 16 Norte 0 -- -- 82
2020-09-18 09:00:00 16.5 10 Noroeste 16 Sudoeste 0.6 -- -- 86
2020-09-18 08:00:00 17.3 9 Sudoeste 13 Oeste 0 -- -- 73
2020-09-18 07:00:00 17.5 6 Oeste 10 Sudoeste 0 -- -- 70
2020-09-18 06:00:00 17.7 3 Nordeste 10 Oeste 0 -- -- 68
2020-09-18 05:00:00 17.7 8 Noroeste 12 Oeste 0 -- -- 69
2020-09-18 04:00:00 18.5 4 Noroeste 10 Norte 0 -- -- 65
2020-09-18 03:00:00 19 5 Noroeste 10 Norte 0 -- -- 62
2020-09-18 02:00:00 19.3 4 Noroeste 12 Oeste 0 -- -- 62
2020-09-18 01:00:00 19.9 5 Noroeste 9 Norte 0 -- -- 59
2020-09-18 00:00:00 20.3 6 Oeste 13 Norte 0 -- -- 58
2020-09-17 23:00:00 20.9 10 Norte 14 Norte 0 -- -- 52
2020-09-17 22:00:00 21.3 13 Noroeste 15 Noroeste 0 -- -- 53
2020-09-17 21:00:00 24.2 5 Sudoeste 14 Este 0 -- -- 43
2020-09-17 20:00:00 25.8 11 Sudeste 15 Sudeste 0 -- -- 41
2020-09-17 19:00:00 26.9 5 Sudeste 13 Sudeste 0 -- -- 41
2020-09-17 18:00:00 26.9 11 Sudeste 21 Sudeste 0 -- -- 38
2020-09-17 17:00:00 27.8 11 Sur 21 Sudeste 0 -- -- 39
2020-09-17 16:00:00 29.7 6 Sudeste 26 Sur 0 -- -- 35
2020-09-17 15:00:00 28.1 15 Sudoeste 33 Sudeste 0 -- -- 38
2020-09-17 14:00:00 28.2 16 Sudeste 26 Sudeste 0 -- -- 41
2020-09-17 13:00:00 28.5 12 Sudeste 18 Sudeste 0 -- -- 48
2020-09-17 12:00:00 25.5 3 Sudoeste 9 Oeste 0 -- -- 51
2020-09-17 11:00:00 21.7 4 Sudoeste 9 Sur 0 -- -- 64
2020-09-17 10:00:00 18.4 2 Sudoeste 6 Oeste 0 -- -- 73
2020-09-17 09:00:00 16.1 6 Oeste 11 Oeste 0 -- -- 82
2020-09-17 08:00:00 15.6 6 Oeste 8 Oeste 0 -- -- 80
2020-09-17 07:00:00 15.6 6 Oeste 8 Oeste 0 -- -- 81
2020-09-17 06:00:00 15.9 0 Calma 10 Norte 0 -- -- 80
2020-09-17 05:00:00 16.1 4 Norte 10 Oeste 0 -- -- 79
2020-09-17 04:00:00 16.3 5 Oeste 11 Oeste 0 -- -- 80
2020-09-17 03:00:00 16.1 8 Noroeste 12 Noroeste 0 -- -- 83
2020-09-17 02:00:00 16.3 8 Oeste 13 Noroeste 0 -- -- 85
2020-09-17 01:00:00 16.8 11 Noroeste 15 Oeste 0 -- -- 85
2020-09-17 00:00:00 17.4 6 Noroeste 12 Sudoeste 0 -- -- 82
2020-09-16 23:00:00 18.2 6 Norte 13 Noroeste 0 -- -- 81
2020-09-16 22:00:00 18.5 7 Noroeste 19 Oeste 0 -- -- 83
2020-09-16 21:00:00 19.3 9 Oeste 21 Oeste 0 -- -- 79
2020-09-16 20:00:00 20.6 18 Oeste 24 Oeste 0 -- -- 73
2020-09-16 19:00:00 22.7 9 Noroeste 24 Noroeste 0 -- -- 54
2020-09-16 18:00:00 22.5 18 Oeste 37 Oeste 0 -- -- 61
2020-09-16 17:00:00 27 20 Sudoeste 29 Sudoeste 0 -- -- 48
2020-09-16 16:00:00 31 14 Sudeste 28 Sudeste 0 -- -- 33
2020-09-16 15:00:00 31.8 20 Sudeste 29 Sudeste 0 -- -- 34
2020-09-16 14:00:00 31.1 13 Sudeste 20 Sudeste 0 -- -- 35
2020-09-16 13:00:00 29.2 13 Sudeste -- -- -- -- -- 38
2020-09-16 12:00:00 25.7 8 Sudeste 13 Este 0 -- -- 46
2020-09-16 11:00:00 22.4 6 Sudeste 10 Sudeste 0 -- -- 56
2020-09-16 10:00:00 18.8 2 Sudeste 5 Este 0 -- -- 71
2020-09-16 09:00:00 15.5 3 Oeste 7 Noroeste 0 -- -- 81
2020-09-16 08:00:00 14.8 2 Oeste 6 Noroeste 0 -- -- 81
2020-09-16 07:00:00 14.7 6 Noroeste 10 Noroeste 0 -- -- 84
2020-09-16 06:00:00 15.1 4 Noroeste 7 Norte 0 -- -- 83
2020-09-16 05:00:00 15.6 5 Oeste 13 Norte 0 -- -- 80
2020-09-16 04:00:00 16.3 6 Noroeste 17 Norte 0 -- -- 78
2020-09-16 03:00:00 16.5 9 Noroeste 17 Noroeste 0 -- -- 78
2020-09-16 02:00:00 16.9 9 Norte 19 Norte 0 -- -- 77
2020-09-16 01:00:00 17.3 14 Norte 18 Norte 0 -- -- 77
2020-09-16 00:00:00 18 11 Norte 17 Norte 0 -- -- 75
2020-09-15 23:00:00 18.8 9 Noroeste 19 Norte 0 -- -- 73
2020-09-15 22:00:00 19.1 8 Noroeste 14 Norte 0 -- -- 73
2020-09-15 21:00:00 21 5 Noroeste 16 Norte 0 -- -- 65
2020-09-15 20:00:00 22.6 8 Noroeste 20 Norte 0 -- -- 57
2020-09-15 19:00:00 23.8 11 Norte 34 Norte 0 -- -- 53
2020-09-15 18:00:00 23.3 20 Noroeste 36 Norte 0 -- -- 58
2020-09-15 17:00:00 24.7 22 Noroeste 44 Noroeste 0 -- -- 51
2020-09-15 16:00:00 30 17 Sudeste 27 Sudeste 0 -- -- 37
2020-09-15 15:00:00 30 16 Sudeste 23 Sudeste 0 -- -- 35
2020-09-15 14:00:00 29.5 13 Sudeste 20 Sudeste 0 -- -- 34
2020-09-15 13:00:00 26.3 12 Sudeste 19 Sudeste 0 -- -- 41
2020-09-15 12:00:00 22.2 12 Sudeste 15 Sudeste 0 -- -- 53
2020-09-15 11:00:00 20 2 Oeste 6 Sudeste 0 -- -- 58
2020-09-15 10:00:00 19.2 2 Noroeste 7 Este 0 -- -- 61
2020-09-15 09:00:00 17.5 4 Este 16 Oeste 0 -- -- 64
2020-09-15 08:00:00 16.9 9 Norte 15 Norte 0 -- -- 65
2020-09-15 07:00:00 16.5 9 Noroeste 13 Oeste 0 -- -- 66
2020-09-15 06:00:00 16.7 0 Calma 12 Sudeste 0 -- -- 65
2020-09-15 05:00:00 17 8 Sudoeste 17 Oeste 0 -- -- 65
2020-09-15 04:00:00 17.4 5 Norte 15 Noroeste 0 -- -- 61
2020-09-15 03:00:00 17.3 9 Norte 12 Oeste 0 -- -- 62
2020-09-15 02:00:00 18 10 Norte 17 Norte 0 -- -- 59
2020-09-15 01:00:00 18.5 12 Oeste 14 Oeste 0 -- -- 58
2020-09-15 00:00:00 20 10 Oeste 13 Oeste 0 -- -- 53
2020-09-14 23:00:00 22.3 3 Sudoeste 13 Norte 0 -- -- 47
2020-09-14 22:00:00 23.6 5 Sudeste 11 Sur 0 -- -- 43
2020-09-14 21:00:00 25 9 Norte 12 Sur 0 -- -- 37
2020-09-14 20:00:00 27.2 10 Sur 18 Sudoeste 0 -- -- 33
2020-09-14 19:00:00 29.3 10 Sudeste 17 Sudoeste 0 -- -- 31
2020-09-14 18:00:00 29.3 14 Sudoeste 27 Sudoeste 0 -- -- 31
2020-09-14 17:00:00 30.7 12 Sudeste 21 Sudeste 0 -- -- 28
2020-09-14 16:00:00 31.8 10 Sudeste 20 Sudeste 0 -- -- 26
2020-09-14 15:00:00 31.2 13 Sudeste 23 Sudeste 0 -- -- 29
2020-09-14 14:00:00 30.7 13 Sudeste 23 Sudeste 0 -- -- 30
2020-09-14 13:00:00 29.7 12 Sudeste 17 Sudeste 0 -- -- 34
2020-09-14 12:00:00 27 6 Este 10 Este 0 -- -- 38
2020-09-14 11:00:00 23.7 3 Sudoeste 9 Este 0 -- -- 45
2020-09-14 10:00:00 19.8 2 Sur 6 Sur 0 -- -- 55
2020-09-14 09:00:00 15.9 2 Oeste 6 Oeste 0 -- -- 63
2020-09-14 08:00:00 14.7 5 Oeste 13 Noroeste 0 -- -- 66
2020-09-14 07:00:00 15.3 2 Noroeste 8 Oeste 0 -- -- 63
2020-09-14 06:00:00 15.6 4 Noroeste 10 Noroeste 0 -- -- 62
2020-09-14 05:00:00 16 8 Noroeste 11 Noroeste 0 -- -- 61
2020-09-14 04:00:00 16.5 6 Noroeste 12 Noroeste 0 -- -- 59
2020-09-14 03:00:00 16.5 8 Oeste 14 Noroeste 0 -- -- 59
2020-09-14 02:00:00 17.3 9 Noroeste 14 Oeste 0 -- -- 57
2020-09-14 01:00:00 18.2 9 Noroeste 12 Noroeste 0 -- -- 53
2020-09-14 00:00:00 19.3 7 Noroeste 15 Oeste 0 -- -- 50
2020-09-13 23:00:00 20.9 12 Oeste 16 Oeste 0 -- -- 45
2020-09-13 22:00:00 23.1 5 Noroeste 10 Noroeste 0 -- -- 41
2020-09-13 21:00:00 25.7 6 Este 14 Sur 0 -- -- 38
2020-09-13 20:00:00 28.3 9 Sur 19 Sur 0 -- -- 31
2020-09-13 19:00:00 30.1 14 Sur 23 Sudeste 0 -- -- 29
2020-09-13 18:00:00 30.7 18 Sudeste 22 Sudeste 0 -- -- 28
2020-09-13 17:00:00 31.8 12 Sudeste 23 Sudeste 0 -- -- 26
2020-09-13 16:00:00 31.7 17 Sudeste 23 Sudeste 0 -- -- 26
2020-09-13 15:00:00 31.6 15 Sudeste 22 Sudeste 0 -- -- 28
2020-09-13 14:00:00 31 13 Sudeste 21 Sudeste 0 -- -- 31
2020-09-13 13:00:00 29.1 13 Sudeste 18 Sudeste 0 -- -- 37
2020-09-13 12:00:00 26.6 6 Sudeste 12 Este 0 -- -- 41
2020-09-13 11:00:00 23.3 5 Sur 10 Sudeste 0 -- -- 48
2020-09-13 10:00:00 19.3 3 Este 8 Este 0 -- -- 59
2020-09-13 09:00:00 16.3 2 Oeste 7 Oeste 0 -- -- 66
2020-09-13 08:00:00 14.9 4 Oeste 8 Norte 0 -- -- 68
2020-09-13 07:00:00 15.4 4 Noroeste 7 Noroeste 0 -- -- 68
2020-09-13 06:00:00 15.8 4 Noroeste 9 Norte 0 -- -- 67
2020-09-13 05:00:00 16 5 Noroeste 10 Noroeste 0 -- -- 66
2020-09-13 04:00:00 16.7 5 Oeste 10 Noroeste 0 -- -- 62
2020-09-13 03:00:00 17 6 Noroeste 15 Oeste 0 -- -- 59
2020-09-13 02:00:00 17.6 6 Oeste 12 Noroeste 0 -- -- 58
2020-09-13 01:00:00 18.5 7 Noroeste 11 Norte 0 -- -- 57
2020-09-13 00:00:00 19.9 8 Oeste 12 Oeste 0 -- -- 50
2020-09-12 23:00:00 20.7 7 Noroeste 13 Norte 0 -- -- 47
2020-09-12 22:00:00 23.4 8 Norte 14 Este 0 -- -- 45
2020-09-12 21:00:00 25.1 8 Este 19 Sur 0 -- -- 45
2020-09-12 20:00:00 27.6 14 Sur 24 Sur 0 -- -- 36
2020-09-12 19:00:00 28.8 18 Sudeste 25 Sudeste 0 -- -- 33
2020-09-12 18:00:00 30.5 16 Sudeste 25 Este 0 -- -- 31
2020-09-12 17:00:00 31.1 15 Sudeste 30 Sudeste 0 -- -- 30
2020-09-12 16:00:00 30.8 22 Sudeste 32 Sudeste 0 -- -- 32
2020-09-12 15:00:00 30.7 19 Sudeste 30 Sudeste 0 -- -- 33
2020-09-12 14:00:00 30.7 15 Sudeste 21 Sudeste 0 -- -- 34
2020-09-12 13:00:00 28.8 13 Sudeste 19 Sudeste 0 -- -- 39
2020-09-12 12:00:00 26.5 9 Sudeste 13 Sudeste 0 -- -- 43
2020-09-12 11:00:00 23.1 5 Sudeste 10 Sudeste 0 -- -- 50
2020-09-12 10:00:00 20 3 Sur 6 Sur 0 -- -- 60
2020-09-12 09:00:00 16 3 Noroeste 10 Norte 0 -- -- 72
2020-09-12 08:00:00 14.8 7 Noroeste 11 Norte 0 -- -- 75
2020-09-12 07:00:00 15.2 8 Noroeste 12 Norte 0 -- -- 74
2020-09-12 06:00:00 15.7 5 Noroeste 9 Noroeste 0 -- -- 74
2020-09-12 05:00:00 16.2 6 Noroeste 11 Noroeste 0 -- -- 70
2020-09-12 04:00:00 16.8 8 Noroeste 12 Noroeste 0 -- -- 68
2020-09-12 03:00:00 17.5 8 Noroeste 12 Noroeste 0 -- -- 68
2020-09-12 02:00:00 18.5 2 Noroeste 12 Norte 0 -- -- 63
2020-09-12 01:00:00 19.7 5 Noroeste 12 Oeste 0 -- -- 60
2020-09-12 00:00:00 20.3 8 Oeste 13 Oeste 0 -- -- 57
2020-09-11 23:00:00 21.7 8 Noroeste 12 Noroeste 0 -- -- 50
2020-09-11 22:00:00 23.8 5 Sudeste 21 Sudeste 0 -- -- 46
2020-09-11 21:00:00 24.8 17 Sudeste 27 Sur 0 -- -- 44
2020-09-11 20:00:00 26.4 16 Sudeste 30 Sur 0 -- -- 40
2020-09-11 19:00:00 27.9 17 Sur 31 Sudeste 0 -- -- 37
2020-09-11 18:00:00 29.6 21 Sudeste 30 Sudeste 0 -- -- 35
2020-09-11 17:00:00 30.2 19 Sudeste 33 Sudeste 0 -- -- 34
2020-09-11 16:00:00 30.3 18 Sudeste 28 Sudeste 0 -- -- 33
2020-09-11 15:00:00 30.9 12 Sudeste 19 Sudeste 0 -- -- 29
2020-09-11 14:00:00 30.2 10 Sudeste 17 Sudeste 0 -- -- 29
2020-09-11 13:00:00 28.3 11 Sudeste 18 Sudeste 0 -- -- 34
2020-09-11 12:00:00 25.8 14 Sudeste 18 Sudeste 0 -- -- 37
2020-09-11 11:00:00 22.2 6 Este 11 Este 0 -- -- 48
2020-09-11 10:00:00 18.4 0 Calma 7 Sudeste 0 -- -- 57
2020-09-11 09:00:00 15.3 0 Calma 6 Norte 0 -- -- 66
2020-09-11 08:00:00 13.5 6 Oeste 8 Oeste 0 -- -- 71
2020-09-11 07:00:00 13.9 3 Noroeste 8 Noroeste 0 -- -- 69
2020-09-11 06:00:00 14.7 5 Oeste 6 Oeste 0 -- -- 67
2020-09-11 05:00:00 15.2 3 Oeste 6 Oeste 0 -- -- 64
2020-09-11 04:00:00 15.9 2 Noroeste 5 Sudoeste 0 -- -- 62
2020-09-11 03:00:00 16.4 3 Norte 9 Norte 0 -- -- 60
2020-09-11 02:00:00 17.5 4 Sur 12 Oeste 0 -- -- 58
2020-09-11 01:00:00 18.8 8 Oeste 10 Noroeste 0 -- -- 53
2020-09-11 00:00:00 19.9 4 Este 15 Sudeste 0 -- -- 50
2020-09-10 23:00:00 21.4 5 Nordeste 9 Noroeste 0 -- -- 45
2020-09-10 22:00:00 23.2 3 Norte 29 Norte 0 -- -- 41
2020-09-10 21:00:00 23.7 19 Norte 34 Norte 0 -- -- 40
2020-09-10 20:00:00 25 15 Norte 43 Nordeste 0 -- -- 38
2020-09-10 19:00:00 27 19 Norte 41 Nordeste 0 -- -- 35
2020-09-10 18:00:00 28.3 17 Norte 39 Norte 0 -- -- 33
2020-09-10 17:00:00 27.6 14 Norte 43 Norte 0 -- -- 35
2020-09-10 16:00:00 26.7 21 Norte 39 Norte 0 -- -- 36
2020-09-10 15:00:00 27.3 15 Norte 32 Norte 0 -- -- 37
2020-09-10 14:00:00 26.9 8 Norte 21 Norte 0 -- -- 40
2020-09-10 13:00:00 24.4 3 Este 11 Sudeste 0 -- -- 49
2020-09-10 12:00:00 23.1 6 Sudeste 13 Sudeste 0 -- -- 54
2020-09-10 11:00:00 19.4 6 Sudeste 14 Sudeste 0 -- -- 71
2020-09-10 10:00:00 18.6 6 Sudeste 10 Sudeste 0 -- -- 72
2020-09-10 09:00:00 14.9 4 Oeste 11 Oeste 0 -- -- 86
2020-09-10 08:00:00 13.2 9 Noroeste 10 Oeste 0 -- -- 91
2020-09-10 07:00:00 13.8 0 Calma 8 Norte 0 -- -- 89
2020-09-10 06:00:00 14.3 3 Este 6 Este 0 -- -- 86
2020-09-10 05:00:00 14.6 3 Oeste 6 Oeste 0 -- -- 86
2020-09-10 04:00:00 14.6 2 Norte 9 Noroeste 0 -- -- 86
2020-09-10 03:00:00 14.8 2 Oeste 8 Norte 0 -- -- 85
2020-09-10 02:00:00 15.4 3 Oeste 10 Norte 0 -- -- 83
2020-09-10 01:00:00 16 6 Noroeste 9 Oeste 0 -- -- 80
2020-09-10 00:00:00 17.2 0 Calma 10 Norte 0 -- -- 77
2020-09-09 23:00:00 18.2 3 Nordeste 10 Norte 0 -- -- 74
2020-09-09 22:00:00 18.9 5 Este 19 Sudeste 0 -- -- 72
2020-09-09 21:00:00 20 17 Sudeste 28 Sudeste 0 -- -- 66
2020-09-09 20:00:00 21.4 18 Sudeste 27 Sudeste 0 -- -- 60
2020-09-09 19:00:00 22.5 15 Sudeste 25 Sudeste 0 -- -- 55
2020-09-09 18:00:00 23.2 15 Sudeste 21 Sudeste 0 -- -- 53
2020-09-09 17:00:00 25 9 Sudeste 19 Sudeste 0 -- -- 46
2020-09-09 16:00:00 24.7 14 Sudeste 24 Sudeste 0 -- -- 47
2020-09-09 15:00:00 25.9 16 Sudeste 23 Sudeste 0 -- -- 44
2020-09-09 14:00:00 23.4 8 Sudeste 17 Sudeste 0 -- -- 44
2020-09-09 13:00:00 24.3 9 Sudeste 17 Sudeste 0 -- -- 42
2020-09-09 12:00:00 23.4 12 Sudeste 16 Sudeste 0 -- -- 45
2020-09-09 11:00:00 20.2 5 Sudeste 9 Sudeste 0 -- -- 51
2020-09-09 10:00:00 17.1 4 Sudoeste 9 Oeste 0 -- -- 62
2020-09-09 09:00:00 15 5 Noroeste 7 Noroeste 0 -- -- 67
2020-09-09 08:00:00 14.5 5 Norte 8 Norte 0 -- -- 66
2020-09-09 07:00:00 14.6 3 Sur 5 Norte 0 -- -- 68
2020-09-09 06:00:00 14.5 2 Nordeste 10 Norte 0 -- -- 64
2020-09-09 05:00:00 14.8 4 Oeste 12 Noroeste 0 -- -- 63
2020-09-09 04:00:00 14.7 6 Noroeste 10 Noroeste 0 -- -- 64
2020-09-09 03:00:00 16 5 Noroeste 9 Noroeste 0 -- -- 60
2020-09-09 02:00:00 17.3 4 Noroeste 14 Noroeste 0 -- -- 56
2020-09-09 01:00:00 17.8 6 Noroeste 10 Noroeste 0 -- -- 56
2020-09-09 00:00:00 17.9 4 Nordeste 22 Oeste 0 -- -- 56
2020-09-08 23:00:00 18.4 7 Nordeste 11 Sudeste 0 -- -- 51
2020-09-08 22:00:00 19.2 5 Oeste 10 Oeste 0 -- -- 47
2020-09-08 21:00:00 21.1 0 Calma 15 Sudeste 0 -- -- 43
2020-09-08 20:00:00 22.4 13 Sudeste 30 Sur 0 -- -- 43
2020-09-08 19:00:00 23.7 24 Sur 40 Sudeste 0 -- -- 35
2020-09-08 18:00:00 25.8 24 Sudeste 37 Sudeste 0 -- -- 33
2020-09-08 17:00:00 27.6 17 Sudeste 26 Sudeste 0 -- -- 28
2020-09-08 16:00:00 27.9 13 Sudeste 22 Sudeste 0 -- -- 27
2020-09-08 15:00:00 27.5 13 Sudeste 24 Sudeste 0 -- -- 26
2020-09-08 14:00:00 26.9 17 Sudeste 26 Sudeste 0 -- -- 28
2020-09-08 13:00:00 25.5 10 Sudeste 15 Sudeste 0 -- -- 29
2020-09-08 12:00:00 23.2 8 Sudeste 12 Sudeste 0 -- -- 31
2020-09-08 11:00:00 19.3 3 Oeste 8 Sudoeste 0 -- -- 36
2020-09-08 10:00:00 16 3 Sudoeste 8 Norte 0 -- -- 43
2020-09-08 09:00:00 12 2 Noroeste 6 Noroeste 0 -- -- 54
2020-09-08 08:00:00 10 3 Oeste 8 Noroeste 0 -- -- 56
2020-09-08 07:00:00 10.4 5 Noroeste 9 Oeste 0 -- -- 55
2020-09-08 06:00:00 10.9 4 Oeste 8 Oeste 0 -- -- 55
2020-09-08 05:00:00 11.5 4 Oeste 8 Oeste 0 -- -- 52
2020-09-08 04:00:00 12.3 7 Noroeste 10 Oeste 0 -- -- 51
2020-09-08 03:00:00 13.6 3 Sudeste 14 Sudeste 0 -- -- 47
2020-09-08 02:00:00 14.6 12 Sudeste 15 Sudeste 0 -- -- 46
2020-09-08 01:00:00 16.2 8 Nordeste 41 Norte 0 -- -- 40
2020-09-08 00:00:00 16.8 7 Noroeste 40 Norte 0 -- -- 39
2020-09-07 23:00:00 17.8 23 Norte 46 Norte 0 -- -- 36
2020-09-07 22:00:00 18.2 27 Norte 56 Norte 0 -- -- 35
2020-09-07 21:00:00 18.6 30 Norte 63 Norte 0 -- -- 35
2020-09-07 20:00:00 20.4 32 Norte 57 Norte 0 -- -- 32
2020-09-07 19:00:00 22.3 37 Norte 59 Norte 0 -- -- 27
2020-09-07 18:00:00 23.5 30 Norte 58 Norte 0 -- -- 25
2020-09-07 17:00:00 24.8 21 Norte 50 Norte 0 -- -- 25
2020-09-07 16:00:00 25.3 21 Norte 45 Norte 0 -- -- 26
2020-09-07 15:00:00 26 15 Norte 38 Norte 0 -- -- 24
2020-09-07 14:00:00 24.6 18 Norte 37 Norte 0 -- -- 28
2020-09-07 13:00:00 24.3 12 Sur 31 Sur 0 -- -- 30
2020-09-07 12:00:00 22.7 7 Sudeste 15 Sudeste 0 -- -- 39
2020-09-07 11:00:00 20.1 10 Este 21 Sudeste 0 -- -- 50
2020-09-07 10:00:00 17.3 10 Sudeste 19 Este 0 -- -- 64
2020-09-07 09:00:00 14.2 9 Este 14 Sudeste 0 -- -- 75
2020-09-07 08:00:00 12.1 3 Oeste 9 Oeste 0 -- -- 81
2020-09-07 07:00:00 12.7 7 Oeste 12 Oeste 0 -- -- 80
2020-09-07 06:00:00 13.6 0 Calma 10 Sudeste 0 -- -- 78
2020-09-07 05:00:00 13.9 4 Este 10 Sudeste 0 -- -- 76
2020-09-07 04:00:00 14.8 8 Sudeste 12 Sudeste 0 -- -- 73
2020-09-07 03:00:00 15.8 11 Sudeste 15 Sudeste 0 -- -- 68
2020-09-07 02:00:00 17.1 8 Sudeste 10 Sudeste 0 -- -- 61
2020-09-07 01:00:00 17.9 5 Sudeste 10 Sudeste 0 -- -- 58
2020-09-07 00:00:00 18.9 6 Sudeste 13 Sudeste 0 -- -- 53
2020-09-06 23:00:00 20 13 Sudeste 27 Sudeste 0 -- -- 50
2020-09-06 22:00:00 22.1 8 Sudeste 18 Sudeste 0 -- -- 41
2020-09-06 21:00:00 23.6 9 Este 21 Sudoeste 0 -- -- 34
2020-09-06 20:00:00 26.2 19 Sudoeste 38 Sudoeste 0 -- -- 30
2020-09-06 19:00:00 29.7 28 Sudoeste 38 Sudoeste 0 -- -- 29
2020-09-06 18:00:00 30.3 21 Oeste 38 Oeste 0 -- -- 31
2020-09-06 17:00:00 29.1 11 Sur 38 Sudeste 0 -- -- 38
2020-09-06 16:00:00 27.3 25 Sudeste 36 Sudeste 0 -- -- 45
2020-09-06 15:00:00 27.9 28 Sudeste 39 Sudeste 0 -- -- 45
2020-09-06 14:00:00 26.3 27 Sudeste 38 Sudeste 0 -- -- 52
2020-09-06 13:00:00 25.3 26 Sudeste 33 Sudeste 0 -- -- 57
2020-09-06 12:00:00 24.9 17 Sudeste 22 Sudeste 0 -- -- 58
2020-09-06 11:00:00 23 11 Sudeste 18 Sudeste 0 -- -- 60
2020-09-06 10:00:00 19.7 5 Sudeste 9 Sudeste 0 -- -- 69
2020-09-06 09:00:00 16.7 3 Noroeste 9 Noroeste 0 -- -- 80
2020-09-06 08:00:00 15.7 4 Oeste 9 Noroeste 0 -- -- 81
2020-09-06 07:00:00 15.9 5 Noroeste 8 Noroeste 0 -- -- 81
2020-09-06 06:00:00 16.3 5 Oeste 8 Noroeste 0 -- -- 79
2020-09-06 05:00:00 17 5 Noroeste 9 Noroeste 0 -- -- 76
2020-09-06 04:00:00 17.4 7 Oeste 11 Noroeste 0 -- -- 75
2020-09-06 03:00:00 18.2 8 Noroeste 12 Oeste 0 -- -- 72
2020-09-06 02:00:00 19.3 11 Oeste 14 Oeste 0 -- -- 68
2020-09-06 01:00:00 21.8 3 Nordeste 10 Nordeste 0 -- -- 61
2020-09-06 00:00:00 22.5 9 Sudeste 20 Sur 0 -- -- 60
2020-09-05 23:00:00 24.5 10 Sudeste 17 Sudeste 0 -- -- 51
2020-09-05 22:00:00 25.4 13 Este 26 Este 0 -- -- 48
2020-09-05 21:00:00 25.9 13 Este 31 Sudeste 0 -- -- 49
2020-09-05 20:00:00 27.7 21 Sudeste 33 Sudeste 0 -- -- 45
2020-09-05 19:00:00 28.7 20 Sudeste 41 Sudeste 0 -- -- 41
2020-09-05 18:00:00 31 22 Sudeste 38 Sudeste 0 -- -- 38
2020-09-05 17:00:00 31.2 22 Sudeste 34 Sudeste 0 -- -- 38
2020-09-05 16:00:00 30.5 21 Sudeste 31 Sudeste 0 -- -- 39
2020-09-05 15:00:00 29.8 23 Sudeste 30 Sudeste 0 -- -- 40
2020-09-05 14:00:00 29.4 16 Sudeste 23 Sudeste 0 -- -- 39
2020-09-05 13:00:00 28.3 13 Sudeste 19 Sudeste 0 -- -- 42
2020-09-05 12:00:00 26.3 11 Sudeste 16 Sudeste 0 -- -- 48
2020-09-05 11:00:00 23.1 5 Sudeste 9 Sudeste 0 -- -- 49
2020-09-05 10:00:00 19.7 3 Sur 9 Norte 0 -- -- 62
2020-09-05 09:00:00 15.9 3 Noroeste 6 Noroeste 0 -- -- 72
2020-09-05 08:00:00 14.2 6 Noroeste 13 Noroeste 0 -- -- 76
2020-09-05 07:00:00 14.6 7 Noroeste 12 Norte 0 -- -- 74
2020-09-05 06:00:00 15 7 Noroeste 12 Noroeste 0 -- -- 73
2020-09-05 05:00:00 15.2 8 Noroeste 12 Noroeste 0 -- -- 73
2020-09-05 04:00:00 16.1 8 Oeste 14 Norte 0 -- -- 68
2020-09-05 03:00:00 16.8 8 Noroeste 13 Norte 0 -- -- 66
2020-09-05 02:00:00 18 6 Noroeste 10 Noroeste 0 -- -- 62
2020-09-05 01:00:00 19 8 Noroeste 12 Oeste 0 -- -- 58
2020-09-05 00:00:00 20.1 9 Oeste 14 Oeste 0 -- -- 55
2020-09-04 23:00:00 21.4 9 Noroeste 13 Norte 0 -- -- 52
2020-09-04 22:00:00 24.1 4 Este 13 Sudeste 0 -- -- 46
2020-09-04 21:00:00 25.2 11 Sudeste 16 Sudeste 0 -- -- 46
2020-09-04 20:00:00 28.1 13 Sur 27 Sudeste 0 -- -- 36
2020-09-04 19:00:00 29 20 Sudeste 26 Sudeste 0 -- -- 37
2020-09-04 18:00:00 30.4 19 Sudeste 23 Sudeste 0 -- -- 32
2020-09-04 17:00:00 30.9 15 Sudeste 21 Sudeste 0 -- -- 31
2020-09-04 16:00:00 31.2 14 Sudeste 20 Sudeste 0 -- -- 30
2020-09-04 15:00:00 30.7 12 Sudeste 20 Sudeste 0 -- -- 30
2020-09-04 14:00:00 29.8 12 Sudeste 19 Sudeste 0 -- -- 30
2020-09-04 13:00:00 29.1 10 Sudeste 16 Sudeste 0 -- -- 32
2020-09-04 12:00:00 26.1 6 Este 12 Este 0 -- -- 38
2020-09-04 11:00:00 22.8 3 Sudoeste 8 Sudeste 0 -- -- 49
2020-09-04 10:00:00 18.7 3 Sudoeste 6 Noroeste 0 -- -- 57
2020-09-04 09:00:00 14.7 3 Noroeste 8 Norte 0 -- -- 72
2020-09-04 08:00:00 13.4 7 Noroeste 13 Noroeste 0 -- -- 73
2020-09-04 07:00:00 13.1 9 Noroeste 13 Noroeste 0 -- -- 74
2020-09-04 06:00:00 14.2 7 Noroeste 12 Noroeste 0 -- -- 69
2020-09-04 05:00:00 14.5 7 Noroeste 13 Noroeste 0 -- -- 66
2020-09-04 04:00:00 15.1 5 Noroeste 13 Noroeste 0 -- -- 63
2020-09-04 03:00:00 15.9 8 Oeste 13 Noroeste 0 -- -- 60
2020-09-04 02:00:00 17.1 7 Noroeste 9 Noroeste 0 -- -- 57
2020-09-04 01:00:00 18 9 Oeste 12 Oeste 0 -- -- 53
2020-09-04 00:00:00 18.8 9 Oeste 14 Noroeste 0 -- -- 52
2020-09-03 23:00:00 20 7 Oeste 9 Oeste 0 -- -- 49
2020-09-03 22:00:00 23.1 4 Sudeste 18 Sudeste 0 -- -- 45
2020-09-03 21:00:00 23.9 15 Sudeste 21 Sudeste 0 -- -- 43
2020-09-03 20:00:00 26.6 13 Sur 27 Sudeste 0 -- -- 34
2020-09-03 19:00:00 27.5 19 Sudeste 26 Sudeste 0 -- -- 39
2020-09-03 18:00:00 28.2 19 Sudeste 30 Sudeste 0 -- -- 38
2020-09-03 17:00:00 28.7 20 Sudeste 28 Sudeste 0 -- -- 37
2020-09-03 16:00:00 28.7 19 Sudeste 26 Sudeste 0 -- -- 37
2020-09-03 15:00:00 29 15 Sudeste 25 Sudeste 0 -- -- 35
2020-09-03 14:00:00 27.9 14 Sudeste 23 Sudeste 0 -- -- 38
2020-09-03 13:00:00 26.4 12 Sudeste 19 Sudeste 0 -- -- 40
2020-09-03 12:00:00 24.3 10 Sudeste 14 Sudeste 0 -- -- 45
2020-09-03 11:00:00 21.3 5 Sudeste 9 Este 0 -- -- 50
2020-09-03 10:00:00 17.9 3 Sur 6 Nordeste 0 -- -- 61
2020-09-03 09:00:00 14.2 0 Calma 4 Oeste 0 -- -- 72
2020-09-03 08:00:00 11.7 5 Noroeste 11 Noroeste 0 -- -- 80
2020-09-03 07:00:00 12.4 6 Noroeste 9 Noroeste 0 -- -- 77
2020-09-03 06:00:00 12.3 5 Noroeste 12 Norte 0 -- -- 78
2020-09-03 05:00:00 13.7 6 Noroeste 9 Oeste 0 -- -- 72
2020-09-03 04:00:00 13.9 7 Noroeste 14 Noroeste 0 -- -- 71
2020-09-03 03:00:00 14.5 8 Oeste 10 Oeste 0 -- -- 69
2020-09-03 02:00:00 15.3 8 Noroeste 10 Noroeste 0 -- -- 67
2020-09-03 01:00:00 16.3 7 Noroeste 10 Oeste 0 -- -- 63
2020-09-03 00:00:00 17.2 5 Noroeste 13 Noroeste 0 -- -- 62
2020-09-02 23:00:00 18.7 9 Noroeste 12 Oeste 0 -- -- 59
2020-09-02 22:00:00 20.8 6 Sudeste 17 Sudeste 0 -- -- 52
2020-09-02 21:00:00 21.9 15 Sudeste 27 Sudeste 0 -- -- 52
2020-09-02 20:00:00 23.7 20 Sudeste 30 Sudeste 0 -- -- 48
2020-09-02 19:00:00 25.3 19 Sudeste 33 Sudeste 0 -- -- 42
2020-09-02 18:00:00 25.9 22 Sudeste 35 Sudeste 0 -- -- 42
2020-09-02 17:00:00 25.8 25 Sudeste 36 Sudeste 0 -- -- 42
2020-09-02 16:00:00 26.2 21 Sudeste 36 Este 0 -- -- 42
2020-09-02 15:00:00 25.7 23 Sudeste 32 Sudeste 0 -- -- 42
2020-09-02 14:00:00 25.5 17 Sudeste 23 Sudeste 0 -- -- 40
2020-09-02 13:00:00 25.1 10 Sudeste 20 Sudeste 0 -- -- 40
2020-09-02 12:00:00 23 13 Sudeste 21 Sudeste 0 -- -- 47
2020-09-02 11:00:00 20.1 6 Este 10 Nordeste 0 -- -- 50
2020-09-02 10:00:00 16.4 5 Este 9 Sudeste 0 -- -- 61
2020-09-02 09:00:00 13.3 2 Oeste 4 Noroeste 0 -- -- 70
2020-09-02 08:00:00 11.4 2 Noroeste 8 Oeste 0 -- -- 76
2020-09-02 07:00:00 11.8 3 Sudoeste 11 Noroeste 0 -- -- 73
2020-09-02 06:00:00 12 8 Oeste 11 Oeste 0 -- -- 71
2020-09-02 05:00:00 12.2 7 Oeste 9 Oeste 0 -- -- 70
2020-09-02 04:00:00 13.1 2 Noroeste 6 Noroeste 0 -- -- 66
2020-09-02 03:00:00 13.8 5 Noroeste 9 Oeste 0 -- -- 63
2020-09-02 02:00:00 14.3 6 Oeste 12 Oeste 0 -- -- 60
2020-09-02 01:00:00 15.1 6 Oeste 9 Oeste 0 -- -- 57
2020-09-02 00:00:00 16 7 Oeste 14 Oeste 0 -- -- 55
2020-09-01 23:00:00 16.9 11 Oeste 14 Oeste 0 -- -- 52
2020-09-01 22:00:00 19.8 3 Sudoeste 13 Este 0 -- -- 44
2020-09-01 21:00:00 20.6 9 Este 24 Sudeste 0 -- -- 45
2020-09-01 20:00:00 22 19 Sudeste 31 Sudeste 0 -- -- 42
2020-09-01 19:00:00 24.1 23 Sudeste 33 Sudeste 0 -- -- 37
2020-09-01 18:00:00 24.8 24 Sudeste 35 Sudeste 0 -- -- 38
2020-09-01 17:00:00 24.2 14 Sudeste 31 Sudeste 0 -- -- 37
2020-09-01 16:00:00 24.3 24 Sudeste 32 Sudeste 0 -- -- 39
2020-09-01 15:00:00 24.4 22 Sudeste 28 Sudeste 0 -- -- 34
2020-09-01 14:00:00 24.9 12 Sudeste 17 Sudeste 0 -- -- 35
2020-09-01 13:00:00 23.4 10 Sudeste 15 Sudeste 0 -- -- 34
2020-09-01 12:00:00 21.3 8 Sudeste 11 Este 0 -- -- 41
2020-09-01 11:00:00 16.5 2 Oeste 8 Oeste 0 -- -- 51
2020-09-01 10:00:00 14.5 4 Norte 8 Norte 0 -- -- 59
2020-09-01 09:00:00 13.1 4 Noroeste 8 Noroeste 0 -- -- 66
2020-09-01 08:00:00 11.9 4 Norte 9 Norte 0 -- -- 65
2020-09-01 07:00:00 12.5 4 Noroeste 14 Norte 0 -- -- 60
2020-09-01 06:00:00 12.5 9 Norte 14 Norte 0 -- -- 61
2020-09-01 05:00:00 13 9 Noroeste 15 Oeste 0 -- -- 60
2020-09-01 04:00:00 12.7 5 Noroeste 12 Norte 0 -- -- 61
2020-09-01 03:00:00 13 7 Noroeste 11 Noroeste 0 -- -- 57
2020-09-01 02:00:00 14 4 Oeste 13 Norte 0 -- -- 54
2020-09-01 01:00:00 14.7 8 Oeste 12 Noroeste 0 -- -- 51
2020-09-01 00:00:00 15 6 Noroeste 13 Noroeste 0 -- -- 50
2020-08-31 23:00:00 16.2 8 Noroeste 15 Noroeste 0 -- -- 46
2020-08-31 22:00:00 17.8 12 Norte 16 Norte 0 -- -- 40
2020-08-31 21:00:00 20.1 6 Sudeste 21 Sudeste 0 -- -- 36
2020-08-31 20:00:00 21.9 15 Sudeste 27 Sudeste 0 -- -- 33
2020-08-31 19:00:00 23.4 21 Sudeste 31 Sudeste 0 -- -- 30
2020-08-31 18:00:00 24.1 23 Sudeste 34 Sudeste 0 -- -- 33
2020-08-31 17:00:00 24.2 20 Sudeste 27 Sudeste 0 -- -- 35
2020-08-31 16:00:00 24.1 18 Sudeste 26 Sudeste 0 -- -- 36
2020-08-31 15:00:00 23.6 21 Sudeste 29 Sudeste 0 -- -- 39
2020-08-31 14:00:00 23.2 14 Sudeste 23 Sudeste 0 -- -- 39
2020-08-31 13:00:00 21.5 17 Sudeste 23 Sudeste 0 -- -- 44
2020-08-31 12:00:00 20.3 12 Sudeste 19 Sudeste 0 -- -- 46
2020-08-31 11:00:00 17.1 7 Este 12 Sudeste 0 -- -- 55
2020-08-31 10:00:00 14.1 4 Sur 7 Sur 0 -- -- 65
2020-08-31 09:00:00 10.3 3 Norte 9 Norte 0 -- -- 79
2020-08-31 08:00:00 8.3 3 Oeste 13 Norte 0 -- -- 82
2020-08-31 07:00:00 8.5 8 Noroeste 11 Norte 0 -- -- 82
2020-08-31 06:00:00 9.2 7 Noroeste 11 Norte 0 -- -- 80
2020-08-31 05:00:00 9.7 5 Noroeste 9 Noroeste 0 -- -- 78
2020-08-31 04:00:00 10.4 5 Noroeste 9 Noroeste 0 -- -- 77
2020-08-31 03:00:00 10.9 8 Norte 10 Norte 0 -- -- 76
2020-08-31 02:00:00 11.5 5 Norte 10 Norte 0 -- -- 76
2020-08-31 01:00:00 12.3 4 Noroeste 9 Norte 0 -- -- 74
2020-08-31 00:00:00 13.1 0 Calma 6 Oeste 0 -- -- 76
2020-08-30 23:00:00 13.7 3 Noroeste 12 Oeste 0 -- -- 73
2020-08-30 22:00:00 14.9 8 Noroeste 14 Oeste 0 -- -- 70
2020-08-30 21:00:00 15.8 7 Norte 15 Sur 0 -- -- 66
2020-08-30 20:00:00 16.2 8 Este 27 Norte 0.4 -- -- 67
2020-08-30 19:00:00 19.9 8 Sur 18 Oeste 0 -- -- 48
2020-08-30 18:00:00 18.5 12 Oeste 33 Oeste 0 -- -- 53
2020-08-30 17:00:00 19.8 26 Oeste 34 Oeste 0 -- -- 44
2020-08-30 16:00:00 22.5 10 Sudeste 25 Sudeste 0 -- -- 39
2020-08-30 15:00:00 23.5 11 Sudeste 24 Sudeste 0 -- -- 39
2020-08-30 14:00:00 22.5 21 Sudeste 29 Sudeste 0 -- -- 40
2020-08-30 13:00:00 22 12 Sudeste 22 Sudeste 0 -- -- 41
2020-08-30 12:00:00 20.4 9 Este 18 Este 0 -- -- 47
2020-08-30 11:00:00 17.5 5 Este 13 Este 0 -- -- 54
2020-08-30 10:00:00 14.3 4 Este 10 Nordeste 0 -- -- 73
2020-08-30 09:00:00 11.2 7 Norte 13 Nordeste 0 -- -- 80
2020-08-30 08:00:00 9.5 10 Norte 15 Norte 0 -- -- 83
2020-08-30 07:00:00 9.2 8 Nordeste 15 Norte 0 -- -- 88
2020-08-30 06:00:00 9.9 8 Norte 15 Norte 0 -- -- 85
2020-08-30 05:00:00 10.5 5 Oeste 10 Norte 0 -- -- 85
2020-08-30 04:00:00 11.1 10 Norte 13 Norte 0 -- -- 83
2020-08-30 03:00:00 12.3 4 Nordeste 10 Nordeste 0 -- -- 77
2020-08-30 02:00:00 13.1 6 Norte 12 Oeste 0 -- -- 78
2020-08-30 01:00:00 13.8 5 Sudoeste 21 Noroeste 0 -- -- 68
2020-08-30 00:00:00 13.5 8 Sudoeste 28 Oeste 0 -- -- 71
2020-08-29 23:00:00 13.4 20 Oeste 27 Oeste 0 -- -- 76
2020-08-29 22:00:00 14.8 15 Oeste 21 Oeste 0 -- -- 70
2020-08-29 21:00:00 15.7 9 Noroeste 15 Noroeste 0 -- -- 64
2020-08-29 20:00:00 16 5 Norte 17 Oeste 0.4 -- -- 79
2020-08-29 19:00:00 16.9 4 Nordeste 8 Nordeste 0.6 -- -- 83
2020-08-29 18:00:00 16.2 2 Sudoeste 31 Norte 0.6 -- -- 80
2020-08-29 17:00:00 15.4 20 Norte 34 Norte 3.4 -- -- 76
2020-08-29 16:00:00 20.1 9 Norte 25 Norte 1.2 -- -- 62
2020-08-29 15:00:00 22.7 14 Sudeste 25 Sudeste 0 -- -- 42
2020-08-29 14:00:00 24 18 Sudeste 27 Sudeste 0 -- -- 37
2020-08-29 13:00:00 23.1 10 Este 17 Este 0 -- -- 39
2020-08-29 12:00:00 20.5 6 Sudeste 13 Sudeste 0 -- -- 47
2020-08-29 11:00:00 18.3 4 Oeste 10 Este 0 -- -- 52
2020-08-29 10:00:00 17.2 2 Sudoeste 7 Oeste 0 -- -- 58
2020-08-29 09:00:00 14.7 5 Noroeste 8 Oeste 0 -- -- 62
2020-08-29 08:00:00 15.3 5 Noroeste 6 Noroeste 0 -- -- 57
2020-08-29 07:00:00 15.7 4 Sudoeste 13 Oeste 0 -- -- 56
2020-08-29 06:00:00 15.8 2 Sudoeste 10 Oeste 0 -- -- 59
2020-08-29 05:00:00 16.3 8 Oeste 14 Sudoeste 0 -- -- 57
2020-08-29 04:00:00 17.3 12 Oeste 18 Sudoeste 0 -- -- 58
2020-08-29 03:00:00 17.8 5 Sudoeste 18 Sudoeste 0 -- -- 57
2020-08-29 02:00:00 18.1 8 Sudoeste 19 Oeste 0 -- -- 59
2020-08-29 01:00:00 18.8 17 Oeste 25 Sudoeste 0 -- -- 60
2020-08-29 00:00:00 19.9 12 Sudoeste 27 Oeste 0 -- -- 59
2020-08-28 23:00:00 21.3 17 Oeste 34 Oeste 0 -- -- 56
2020-08-28 22:00:00 22 24 Oeste 36 Oeste 0 -- -- 56
2020-08-28 21:00:00 22.7 18 Oeste 27 Oeste 0 -- -- 58
2020-08-28 20:00:00 24.6 19 Oeste 27 Oeste 0 -- -- 57
2020-08-28 19:00:00 26 5 Sudoeste 15 Sudoeste 0 -- -- 60
2020-08-28 18:00:00 24.4 5 Norte 13 Nordeste 0 -- -- 81
2020-08-28 17:00:00 22.7 4 Norte 30 Este 6 -- -- 87
2020-08-28 16:00:00 25.8 10 Sudeste 22 Este 0 -- -- 66
2020-08-28 15:00:00 26.2 11 Sudeste 21 Sudeste 0 -- -- 66
2020-08-28 14:00:00 24.3 8 Sudeste 24 Sur 0 -- -- 74
2020-08-28 13:00:00 24 11 Sudeste 28 Sudeste 0 -- -- 75
2020-08-28 12:00:00 24.1 10 Sudeste 17 Sudeste 0 -- -- 74
2020-08-28 11:00:00 22.3 11 Sudeste 13 Sudeste 0 -- -- 71
2020-08-28 10:00:00 22.1 2 Este 6 Oeste 0 -- -- 61
2020-08-28 09:00:00 20.8 3 Sudeste 9 Oeste 0 -- -- 60
2020-08-28 08:00:00 20.2 6 Oeste 7 Oeste 0 -- -- 61
2020-08-28 07:00:00 20.2 3 Noroeste 13 Oeste 0 -- -- 64
2020-08-28 06:00:00 20.2 8 Oeste 10 Noroeste 0 -- -- 57
2020-08-28 05:00:00 20.7 7 Oeste 11 Oeste 0 -- -- 55
2020-08-28 04:00:00 21.1 7 Noroeste 11 Oeste 0 -- -- 57
2020-08-28 03:00:00 21.3 6 Oeste 15 Oeste 0 -- -- 53
2020-08-28 02:00:00 21.2 8 Oeste 17 Oeste 0 -- -- 53
2020-08-28 01:00:00 22.1 8 Oeste 9 Oeste 0 -- -- 49
2020-08-28 00:00:00 23.8 0 Calma 11 Oeste 0 -- -- 44
2020-08-27 23:00:00 24.5 8 Oeste 13 Oeste 0 -- -- 41
2020-08-27 22:00:00 27.7 4 Nordeste 14 Sudeste 0 -- -- 44
2020-08-27 21:00:00 29.9 10 Este 19 Oeste 0 -- -- 40
2020-08-27 20:00:00 33.2 10 Noroeste 31 Sudoeste 0 -- -- 27
2020-08-27 19:00:00 33.2 12 Sudeste 31 Sudeste 0 -- -- 37
2020-08-27 18:00:00 32.5 12 Sudeste 36 Sudeste 0 -- -- 44
2020-08-27 17:00:00 32.9 23 Sudeste 32 Sudeste 0 -- -- 47
2020-08-27 16:00:00 31 23 Sudeste 32 Sudeste 0 -- -- 52
2020-08-27 15:00:00 32.2 24 Sudeste 31 Sudeste 0 -- -- 47
2020-08-27 14:00:00 33 17 Sudeste 22 Sudeste 0 -- -- 41
2020-08-27 13:00:00 31.7 13 Sudeste 21 Sudeste 0 -- -- 48
2020-08-27 12:00:00 29.8 10 Sudeste 17 Este 0 -- -- 55
2020-08-27 11:00:00 27.3 5 Sudeste 9 Sudeste 0 -- -- 46
2020-08-27 10:00:00 23.6 2 Sudoeste 6 Sur 0 -- -- 58
2020-08-27 09:00:00 20.4 2 Norte 13 Noroeste 0 -- -- 68
2020-08-27 08:00:00 18 9 Oeste 11 Oeste 0 -- -- 67
2020-08-27 07:00:00 18.3 6 Noroeste 10 Norte 0 -- -- 75
2020-08-27 06:00:00 19.5 0 Calma 8 Noroeste 0 -- -- 65
2020-08-27 05:00:00 20.1 7 Oeste 17 Noroeste 0 -- -- 59
2020-08-27 04:00:00 20.6 11 Norte 15 Norte 0 -- -- 66
2020-08-27 03:00:00 20.9 8 Oeste 14 Noroeste 0 -- -- 63
2020-08-27 02:00:00 21.5 9 Oeste 15 Norte 0 -- -- 60
2020-08-27 01:00:00 22.5 8 Noroeste 12 Noroeste 0 -- -- 61
2020-08-27 00:00:00 23.5 10 Oeste 14 Oeste 0 -- -- 60
2020-08-26 23:00:00 25.4 9 Norte 12 Norte 0 -- -- 55
2020-08-26 22:00:00 27.4 3 Norte 14 Sudeste 0 -- -- 50
2020-08-26 21:00:00 28.8 11 Sudeste 23 Sudeste 0 -- -- 49
2020-08-26 20:00:00 30.2 17 Sudeste 28 Sudeste 0 -- -- 46
2020-08-26 19:00:00 32.1 19 Sudeste 28 Sudeste 0 -- -- 40
2020-08-26 18:00:00 32.5 21 Sudeste 33 Sudeste 0 -- -- 41
2020-08-26 17:00:00 32.8 22 Sudeste 32 Sudeste 0 -- -- 41
2020-08-26 16:00:00 33.2 23 Sudeste 29 Sudeste 0 -- -- 41
2020-08-26 15:00:00 33.8 14 Sudeste 24 Sudeste 0 -- -- 36
2020-08-26 14:00:00 33.1 14 Sudeste 21 Sudeste 0 -- -- 37
2020-08-26 13:00:00 31.4 10 Sudeste 15 Este 0 -- -- 39
2020-08-26 12:00:00 30.6 9 Sudeste 18 Sudeste 0 -- -- 41
2020-08-26 11:00:00 26.8 5 Este 10 Este 0 -- -- 44
2020-08-26 10:00:00 23.4 4 Sur 8 Este 0 -- -- 51
2020-08-26 09:00:00 19.7 2 Oeste 10 Oeste 0 -- -- 59
2020-08-26 08:00:00 17.8 8 Noroeste 11 Oeste 0 -- -- 60
2020-08-26 07:00:00 18.4 4 Noroeste 9 Noroeste 0 -- -- 58
2020-08-26 06:00:00 19.2 4 Noroeste 8 Oeste 0 -- -- 57
2020-08-26 05:00:00 19.6 4 Oeste 9 Norte 0 -- -- 53
2020-08-26 04:00:00 19.8 5 Noroeste 14 Norte 0 -- -- 55
2020-08-26 03:00:00 20.4 7 Noroeste 14 Noroeste 0 -- -- 49
2020-08-26 02:00:00 20.9 9 Noroeste 14 Noroeste 0 -- -- 50
2020-08-26 01:00:00 21.7 10 Noroeste 14 Norte 0 -- -- 49
2020-08-26 00:00:00 23.1 6 Norte 11 Oeste 0 -- -- 47
2020-08-25 23:00:00 24.1 8 Oeste 13 Oeste 0 -- -- 43
2020-08-25 22:00:00 25.8 11 Noroeste 15 Oeste 0 -- -- 44
2020-08-25 21:00:00 29.1 8 Este 24 Sudeste 0 -- -- 38
2020-08-25 20:00:00 31.1 17 Sudeste 27 Sudeste 0 -- -- 35
2020-08-25 19:00:00 31.8 22 Sudeste 32 Sudeste 0 -- -- 35
2020-08-25 18:00:00 32.7 23 Sudeste 35 Sudeste 0 -- -- 34
2020-08-25 17:00:00 32.7 26 Sudeste 35 Sudeste 0 -- -- 36
2020-08-25 16:00:00 33.7 20 Sudeste 34 Sudeste 0 -- -- 33
2020-08-25 15:00:00 33.1 17 Sudeste 22 Sudeste 0 -- -- 31
2020-08-25 14:00:00 32.1 13 Sudeste 21 Sudeste 0 -- -- 32
2020-08-25 13:00:00 30.2 14 Sudeste 18 Sudeste 0 -- -- 34
2020-08-25 12:00:00 27.5 12 Sudeste 17 Sudeste 0 -- -- 33
2020-08-25 11:00:00 23.9 8 Sudeste 12 Sudeste 0 -- -- 42
2020-08-25 10:00:00 20.7 0 Calma 10 Nordeste 0 -- -- 47
2020-08-25 09:00:00 16.5 3 Noroeste 8 Noroeste 0 -- -- 57
2020-08-25 08:00:00 14.3 6 Noroeste 8 Noroeste 0 -- -- 65
2020-08-25 07:00:00 14.9 4 Sudoeste 11 Noroeste 0 -- -- 57
2020-08-25 06:00:00 15.4 5 Noroeste 13 Norte 0 -- -- 57
2020-08-25 05:00:00 16 6 Noroeste 13 Noroeste 0 -- -- 56
2020-08-25 04:00:00 16 8 Noroeste 15 Norte 0 -- -- 56
2020-08-25 03:00:00 16.9 6 Noroeste 16 Noroeste 0 -- -- 54
2020-08-25 02:00:00 17.3 9 Noroeste 12 Noroeste 0 -- -- 52
2020-08-25 01:00:00 18.3 8 Noroeste 12 Oeste 0 -- -- 47
2020-08-25 00:00:00 19.7 5 Oeste 12 Oeste 0 -- -- 45
2020-08-24 23:00:00 20.8 8 Noroeste 13 Noroeste 0 -- -- 43
2020-08-24 22:00:00 23.9 5 Norte 21 Sudeste 0 -- -- 36
2020-08-24 21:00:00 25.6 12 Este 21 Sudeste 0 -- -- 34
2020-08-24 20:00:00 27.8 15 Sudeste 26 Sudeste 0 -- -- 32
2020-08-24 19:00:00 29.4 14 Sudeste -- -- -- -- -- 30
2020-08-24 18:00:00 -- 16 Sudeste -- -- -- -- -- --
2020-08-24 17:00:00 30.7 17 Sudeste 34 Sudeste 0 -- -- 31
2020-08-24 16:00:00 29.1 23 Sudeste 39 Sudeste 0 -- -- 38
2020-08-24 15:00:00 28.3 26 Sudeste 34 Sudeste 0 -- -- 40
2020-08-24 14:00:00 28.5 17 Sudeste 27 Sudeste 0 -- -- 38
2020-08-24 13:00:00 27.2 14 Sudeste 20 Sudeste 0 -- -- 41
2020-08-24 12:00:00 25.4 11 Sudeste 16 Sudeste 0 -- -- 44
2020-08-24 11:00:00 23.2 7 Sudeste 12 Sudeste 0 -- -- 48
2020-08-24 10:00:00 19.8 3 Sur 9 Sur 0 -- -- 56
2020-08-24 09:00:00 16.1 0 Calma 9 Norte 0 -- -- 67
2020-08-24 08:00:00 13.9 6 Noroeste 11 Noroeste 0 -- -- 71
2020-08-24 07:00:00 13.7 5 Noroeste 12 Noroeste 0 -- -- 72
2020-08-24 06:00:00 15 6 Oeste 10 Norte 0 -- -- 68
2020-08-24 05:00:00 15.4 12 Norte 15 Norte 0 -- -- 65
2020-08-24 04:00:00 15.9 6 Noroeste 14 Norte 0 -- -- 63
2020-08-24 03:00:00 18.2 8 Noroeste 18 Norte 0 -- -- 55
2020-08-24 02:00:00 18.9 9 Noroeste 14 Norte 0 -- -- 53
2020-08-24 01:00:00 19.7 9 Noroeste 17 Norte 0 -- -- 50
2020-08-24 00:00:00 21.2 14 Norte 18 Noroeste 0 -- -- 45
2020-08-23 23:00:00 22.9 5 Norte 13 Norte 0 -- -- 42
2020-08-23 22:00:00 24.5 8 Oeste 15 Oeste 0 -- -- 38
2020-08-23 21:00:00 26.7 4 Norte 23 Sur 0 -- -- 34
2020-08-23 20:00:00 27.9 17 Sudeste 28 Sudeste 0 -- -- 31
2020-08-23 19:00:00 29.6 18 Sudeste 34 Sudeste 0 -- -- 32
2020-08-23 18:00:00 30.2 23 Sudeste 33 Sudeste 0 -- -- 31
2020-08-23 17:00:00 29.8 24 Sudeste 33 Sudeste 0 -- -- 31
2020-08-23 16:00:00 29.7 22 Sudeste 32 Sudeste 0 -- -- 30
2020-08-23 15:00:00 29.4 20 Sudeste 28 Sudeste 0 -- -- 31
2020-08-23 14:00:00 28.8 18 Sudeste 25 Sudeste 0 -- -- 32
2020-08-23 13:00:00 27.8 16 Sudeste 21 Sudeste 0 -- -- 29
2020-08-23 12:00:00 26.4 13 Sudeste 18 Sudeste 0 -- -- 27
2020-08-23 11:00:00 23.5 7 Sudeste 13 Este 0 -- -- 36
2020-08-23 10:00:00 19.6 5 Sudeste 10 Sudeste 0 -- -- 46
2020-08-23 09:00:00 16.5 5 Norte 17 Norte 0 -- -- 52
2020-08-23 08:00:00 13.8 6 Noroeste 18 Norte 0 -- -- 59
2020-08-23 07:00:00 14.9 6 Oeste 15 Norte 0 -- -- 52
2020-08-23 06:00:00 15.3 13 Norte 17 Norte 0 -- -- 54
2020-08-23 05:00:00 15.8 9 Norte 22 Norte 0 -- -- 52
2020-08-23 04:00:00 17.3 15 Norte 20 Norte 0 -- -- 46
2020-08-23 03:00:00 18.1 12 Noroeste 21 Norte 0 -- -- 46
2020-08-23 02:00:00 18.3 10 Noroeste 18 Norte 0 -- -- 47
2020-08-23 01:00:00 20.9 6 Norte 14 Norte 0 -- -- 40
2020-08-23 00:00:00 22.7 8 Oeste 10 Sudoeste 0 -- -- 36
2020-08-22 23:00:00 24.3 5 Sudeste 11 Oeste 0 -- -- 32
2020-08-22 22:00:00 26 8 Noroeste 31 Noroeste 0 -- -- 29
2020-08-22 21:00:00 27.6 14 Oeste 26 Oeste 0 -- -- 29
2020-08-22 20:00:00 31.5 19 Oeste 31 Oeste 0 -- -- 18
2020-08-22 19:00:00 33.2 20 Oeste 34 Sudeste 0 -- -- 19
2020-08-22 18:00:00 32.7 22 Sudeste 44 Este 0 -- -- 26
2020-08-22 17:00:00 32.6 28 Sudeste 47 Sudeste 0 -- -- 28
2020-08-22 16:00:00 32.9 22 Sudeste 37 Sudeste 0 -- -- 28
2020-08-22 15:00:00 32 28 Sudeste 36 Sudeste 0 -- -- 30
2020-08-22 14:00:00 31.6 24 Sudeste 32 Sudeste 0 -- -- 34
2020-08-22 13:00:00 30.5 20 Sudeste 27 Sudeste 0 -- -- 48
2020-08-22 12:00:00 29.1 13 Sudeste 17 Sudeste 0 -- -- 43
2020-08-22 11:00:00 26.8 12 Sudeste 17 Sudeste 0 -- -- 62
2020-08-22 10:00:00 23.9 3 Este 7 Norte 0 -- -- 59
2020-08-22 09:00:00 20.6 0 Calma 8 Noroeste 0 -- -- 67
2020-08-22 08:00:00 19.9 6 Noroeste 13 Noroeste 0 -- -- 65
2020-08-22 07:00:00 19.9 7 Norte 12 Norte 0 -- -- 64
2020-08-22 06:00:00 20.8 7 Norte 11 Norte 0 -- -- 60
2020-08-22 05:00:00 21.5 3 Este 8 Noroeste 0 -- -- 56
2020-08-22 04:00:00 22.3 7 Noroeste 14 Norte 0 -- -- 53
2020-08-22 03:00:00 22.7 9 Noroeste 15 Norte 0 -- -- 51
2020-08-22 02:00:00 22.7 6 Noroeste 15 Norte 0 -- -- 51
2020-08-22 01:00:00 23.1 11 Norte 15 Norte 0 -- -- 48
2020-08-22 00:00:00 23.9 6 Norte 14 Noroeste 0 -- -- 47
2020-08-21 23:00:00 25.4 8 Oeste 13 Norte 0 -- -- 41
2020-08-21 22:00:00 28.1 0 Calma 18 Sudeste 0 -- -- 39
2020-08-21 21:00:00 29.7 15 Sudeste 21 Sudeste 0 -- -- 37
2020-08-21 20:00:00 31.8 19 Sudeste 32 Sudeste 0 -- -- 29
2020-08-21 19:00:00 33.2 21 Sudeste 32 Sudeste 0 -- -- 29
2020-08-21 18:00:00 34.1 23 Sudeste 34 Sudeste 0 -- -- 27
2020-08-21 17:00:00 33.8 23 Sudeste 32 Sudeste 0 -- -- 30
2020-08-21 16:00:00 34.4 17 Sudeste 25 Sudeste 0 -- -- 28
2020-08-21 15:00:00 34.4 15 Sudeste 20 Sudeste 0 -- -- 27
2020-08-21 14:00:00 33.5 10 Sudeste 18 Sudeste 0 -- -- 29
2020-08-21 13:00:00 31.7 12 Sudeste 17 Sudeste 0 -- -- 35
2020-08-21 12:00:00 30.3 8 Sudeste 14 Sudeste 0 -- -- 36
2020-08-21 11:00:00 27.3 5 Sur 9 Sudeste 0 -- -- 40
2020-08-21 10:00:00 23.4 2 Sur 6 Norte 0 -- -- 51
2020-08-21 09:00:00 19.3 5 Noroeste 14 Norte 0 -- -- 60
2020-08-21 08:00:00 17.3 4 Noroeste 12 Noroeste 0 -- -- 64
2020-08-21 07:00:00 17.3 6 Oeste 14 Noroeste 0 -- -- 64
2020-08-21 06:00:00 18 9 Oeste 16 Norte 0 -- -- 62
2020-08-21 05:00:00 18.7 7 Noroeste 16 Noroeste 0 -- -- 59
2020-08-21 04:00:00 19.2 8 Oeste 14 Norte 0 -- -- 59
2020-08-21 03:00:00 20.1 8 Noroeste 14 Noroeste 0 -- -- 56
2020-08-21 02:00:00 21.2 8 Noroeste 14 Oeste 0 -- -- 53
2020-08-21 01:00:00 22.1 13 Oeste 17 Oeste 0 -- -- 52
2020-08-21 00:00:00 23.4 10 Oeste 15 Oeste 0 -- -- 48
2020-08-20 23:00:00 25.9 5 Sudoeste 13 Sudeste 0 -- -- 42
2020-08-20 22:00:00 27.4 7 Sudeste 26 Sur 0 -- -- 39
2020-08-20 21:00:00 28.8 16 Sudeste 34 Sur 0 -- -- 38
2020-08-20 20:00:00 31 23 Sur 38 Sudeste 0 -- -- 36
2020-08-20 19:00:00 33 21 Sur 31 Sudeste 0 -- -- 33
2020-08-20 18:00:00 33.8 15 Sur 33 Sudeste 0 -- -- 31
2020-08-20 17:00:00 34.3 22 Sudeste 36 Sudeste 0 -- -- 30
2020-08-20 16:00:00 34.5 20 Sudeste 33 Sudeste 0 -- -- 28
2020-08-20 15:00:00 34.6 14 Sudeste 30 Sudeste 0 -- -- 30
2020-08-20 14:00:00 33.2 12 Sudeste 20 Sur 0 -- -- 33
2020-08-20 13:00:00 32 10 Sudeste 15 Sudeste 0 -- -- 37
2020-08-20 12:00:00 30.2 9 Sudeste 14 Sudeste 0 -- -- 40
2020-08-20 11:00:00 27.4 3 Sudoeste 9 Este 0 -- -- 49
2020-08-20 10:00:00 24 3 Sudoeste 10 Norte 0 -- -- 58
2020-08-20 09:00:00 19.9 3 Noroeste 9 Norte 0 -- -- 70
2020-08-20 08:00:00 18.1 6 Oeste 12 Norte 0 -- -- 75
2020-08-20 07:00:00 18.7 4 Norte 15 Noroeste 0 -- -- 72
2020-08-20 06:00:00 18.9 13 Noroeste 19 Noroeste 0 -- -- 71
2020-08-20 05:00:00 19.1 5 Noroeste 12 Noroeste 0 -- -- 70
2020-08-20 04:00:00 19.3 8 Noroeste 18 Norte 0 -- -- 69
2020-08-20 03:00:00 20 9 Noroeste 13 Norte 0 -- -- 67
2020-08-20 02:00:00 20.9 8 Noroeste 17 Noroeste 0 -- -- 63
2020-08-20 01:00:00 22.2 6 Oeste 16 Noroeste 0 -- -- 60
2020-08-20 00:00:00 24.4 7 Norte 15 Norte 0 -- -- 52